Time;durP1;ratioP1;P1;durP2;ratioP2;P2;SDS_P1;SDS_P2;PMS_P1;PMS_P2;Temp;Humidity;BMP_temperature;BMP_pressure;BME280_temperature;BME280_humidity;BME280_pressure;Samples;Min_cycle;Max_cycle;Signal;HPM_P1;HPM_P2
2022/06/02 00:00:58;;;;;;;3.95;3.60;;;12.10;56.40;;;;;;4947328;28;20086;-53
2022/06/02 00:03:33;;;;;;;4.22;3.83;;;12.00;56.00;;;;;;4939997;28;20559;-52
2022/06/02 00:06:16;;;;;;;3.97;3.58;;;12.00;55.90;;;;;;4945125;28;20044;-49
2022/06/02 00:09:10;;;;;;;4.65;3.75;;;11.90;56.10;;;;;;4948135;28;20067;-49
2022/06/02 00:11:48;;;;;;;3.72;3.38;;;11.90;56.30;;;;;;4940687;29;20059;-49
2022/06/02 00:14:29;;;;;;;7.03;3.83;;;11.90;56.20;;;;;;4942798;28;20078;-53
2022/06/02 00:17:25;;;;;;;3.63;3.33;;;11.80;56.50;;;;;;4953100;28;20071;-50
2022/06/02 00:20:18;;;;;;;3.88;3.58;;;11.80;56.60;;;;;;4942733;28;20566;-50
2022/06/02 00:22:50;;;;;;;;;;;11.80;56.80;;;;;;4916438;29;20463;-51
2022/06/02 00:25:35;;;;;;;4.18;3.25;;;11.80;56.10;;;;;;4943766;28;20391;-49
2022/06/02 00:28:14;;;;;;;4.05;3.65;;;11.80;56.30;;;;;;4930472;29;20127;-53
2022/06/02 00:31:03;;;;;;;4.15;3.75;;;11.70;56.00;;;;;;4938983;29;20050;-52
2022/06/02 00:33:55;;;;;;;4.03;3.42;;;11.70;56.70;;;;;;4939799;29;20163;-49
2022/06/02 00:36:38;;;;;;;4.40;3.75;;;11.70;56.50;;;;;;4932581;29;20563;-53
2022/06/02 00:39:08;;;;;;;4.13;3.72;;;11.60;56.60;;;;;;4933942;29;20078;-52
2022/06/02 00:41:49;;;;;;;5.03;4.47;;;11.60;56.20;;;;;;4941221;29;20063;-50
2022/06/02 00:44:56;;;;;;;5.07;4.68;;;11.50;56.60;;;;;;4945340;28;20039;-50
2022/06/02 00:47:37;;;;;;;5.13;4.55;;;11.50;57.40;;;;;;4944754;28;20048;-50
2022/06/02 00:50:32;;;;;;;4.63;4.20;;;11.50;57.50;;;;;;4943225;29;20050;-49
2022/06/02 00:53:30;;;;;;;6.20;5.70;;;11.50;56.90;;;;;;4943476;29;20086;-52
2022/06/02 00:59:39;;;;;;;8.35;5.20;;;11.50;57.10;;;;;;4928357;29;20043;-49
2022/06/02 01:02:06;;;;;;;5.07;4.57;;;11.50;57.80;;;;;;4935220;29;20048;-49
2022/06/02 01:04:38;;;;;;;5.75;5.00;;;11.50;56.80;;;;;;4944245;28;20094;-51
2022/06/02 01:07:24;;;;;;;;;;;11.40;57.20;;;;;;4941674;29;20043;-53
2022/06/02 01:10:33;;;;;;;4.20;3.80;;;11.50;57.30;;;;;;4929232;29;20409;-49
2022/06/02 01:13:10;;;;;;;5.10;4.53;;;11.40;57.10;;;;;;4929429;29;20075;-51
2022/06/02 01:15:52;;;;;;;5.63;5.03;;;11.40;57.20;;;;;;4940319;29;20083;-54
2022/06/02 01:18:30;;;;;;;4.85;4.43;;;11.30;57.20;;;;;;4937114;29;20575;-49
2022/06/02 01:21:19;;;;;;;4.90;4.40;;;11.30;56.80;;;;;;4945095;28;20407;-52
2022/06/02 01:24:02;;;;;;;4.20;3.88;;;11.30;57.40;;;;;;4952402;28;20043;-50
2022/06/02 01:27:06;;;;;;;5.10;4.43;;;11.30;57.20;;;;;;4938988;28;20059;-52
2022/06/02 01:29:54;;;;;;;5.20;4.43;;;11.20;57.40;;;;;;4933324;28;20814;-49
2022/06/02 01:32:30;;;;;;;4.68;3.97;;;11.20;57.00;;;;;;4932665;29;20055;-51
2022/06/02 01:35:28;;;;;;;5.30;4.80;;;11.10;56.90;;;;;;4936122;29;20431;-50
2022/06/02 01:38:05;;;;;;;5.75;4.75;;;11.10;57.70;;;;;;4921325;29;20562;-49
2022/06/02 01:40:45;;;;;;;5.05;4.55;;;11.10;56.90;;;;;;4944557;28;20071;-53
2022/06/02 01:43:32;;;;;;;4.55;4.15;;;11.00;56.90;;;;;;4947019;29;20040;-50
2022/06/02 01:46:24;;;;;;;5.07;4.57;;;11.00;56.80;;;;;;4933400;29;20055;-51
2022/06/02 01:48:58;;;;;;;4.80;4.22;;;10.90;57.20;;;;;;4957917;23;20052;-48
2022/06/02 01:51:38;;;;;;;5.85;4.35;;;10.90;56.80;;;;;;4945804;28;20497;-52
2022/06/02 01:54:46;;;;;;;4.90;4.47;;;10.90;57.00;;;;;;4942253;29;20047;-48
2022/06/02 01:57:31;;;;;;;5.28;4.60;;;10.80;57.40;;;;;;4912054;29;20126;-51
2022/06/02 02:00:15;;;;;;;5.07;4.53;;;10.80;57.50;;;;;;4927173;29;20496;-49
2022/06/02 02:03:00;;;;;;;4.70;4.30;;;10.80;56.90;;;;;;4925994;29;20500;-48
2022/06/02 02:06:06;;;;;;;5.30;4.80;;;10.70;56.90;;;;;;4921940;29;20400;-51
2022/06/02 02:08:42;;;;;;;4.53;3.90;;;10.80;57.80;;;;;;4850769;29;20089;-50
2022/06/02 02:11:33;;;;;;;5.20;4.70;;;10.70;57.30;;;;;;4912698;29;20056;-49
2022/06/02 02:14:07;;;;;;;4.55;4.15;;;10.70;57.60;;;;;;4918966;29;20608;-51
2022/06/02 02:16:54;;;;;;;4.25;3.85;;;10.60;57.20;;;;;;4922554;29;20076;-51
2022/06/02 02:19:32;;;;;;;5.03;4.47;;;10.60;57.60;;;;;;4931039;29;20043;-48
2022/06/02 02:22:07;;;;;;;4.80;4.30;;;10.60;57.00;;;;;;4932573;29;20044;-50
2022/06/02 02:25:09;;;;;;;5.57;4.43;;;10.50;57.10;;;;;;4920515;29;20040;-51
2022/06/02 02:28:03;;;;;;;5.50;4.75;;;10.50;57.30;;;;;;4919030;29;20127;-49
2022/06/02 02:30:46;;;;;;;4.28;3.88;;;10.50;57.20;;;;;;4917790;29;20642;-49
2022/06/02 02:33:38;;;;;;;5.28;4.78;;;10.40;57.80;;;;;;4924368;29;20044;-51
2022/06/02 02:36:23;;;;;;;4.75;4.28;;;10.40;57.90;;;;;;4926034;29;20074;-49
2022/06/02 02:38:58;;;;;;;5.05;4.50;;;10.40;57.40;;;;;;4930764;29;20048;-50
2022/06/02 02:42:00;;;;;;;6.13;4.78;;;10.40;57.60;;;;;;4920135;29;20088;-51
2022/06/02 02:44:51;;;;;;;4.50;3.85;;;10.40;58.10;;;;;;4881654;29;20454;-51
2022/06/02 02:47:29;;;;;;;4.95;4.45;;;10.40;57.60;;;;;;4919088;29;20068;-51
2022/06/02 02:50:07;;;;;;;4.60;4.20;;;10.30;57.40;;;;;;4919936;29;20059;-51
2022/06/02 02:52:55;;;;;;;5.80;4.13;;;10.30;57.70;;;;;;4930501;29;20571;-51
2022/06/02 02:55:39;;;;;;;4.18;3.85;;;10.30;58.00;;;;;;4927412;29;20043;-51
2022/06/02 02:58:33;;;;;;;5.07;4.50;;;10.20;57.70;;;;;;4936479;29;20047;-52
2022/06/02 03:01:07;;;;;;;4.90;4.03;;;10.20;57.60;;;;;;4929281;29;20040;-50
2022/06/02 03:03:40;;;;;;;4.82;4.25;;;10.20;57.60;;;;;;4928473;29;20530;-51
2022/06/02 03:06:20;;;;;;;4.60;4.20;;;10.20;57.50;;;;;;4935671;29;20040;-51
2022/06/02 03:09:05;;;;;;;4.90;4.15;;;10.10;57.80;;;;;;4928971;29;20040;-51
2022/06/02 03:12:01;;;;;;;5.22;4.18;;;10.10;57.60;;;;;;4920154;29;20067;-51
2022/06/02 03:14:49;;;;;;;4.43;4.03;;;10.10;58.10;;;;;;4918638;29;20583;-52
2022/06/02 03:17:44;;;;;;;5.63;3.95;;;10.10;57.90;;;;;;4914740;29;20540;-49
2022/06/02 03:20:19;;;;;;;5.70;5.03;;;10.00;58.00;;;;;;4920050;29;20076;-51
2022/06/02 03:22:52;;;;;;;5.22;4.50;;;10.00;57.60;;;;;;4925122;29;20048;-50
2022/06/02 03:25:49;;;;;;;5.30;4.05;;;10.00;57.80;;;;;;4933652;29;20046;-51
2022/06/02 03:28:29;;;;;;;4.90;4.40;;;9.90;57.90;;;;;;4925781;29;20047;-51
2022/06/02 03:30:59;;;;;;;4.68;4.28;;;9.90;57.90;;;;;;4918397;29;20507;-51
2022/06/02 03:33:51;;;;;;;4.97;4.32;;;9.90;57.80;;;;;;4923557;29;20052;-50
2022/06/02 03:36:51;;;;;;;4.60;4.10;;;9.90;58.40;;;;;;4910744;29;20048;-46
2022/06/02 03:39:33;;;;;;;5.20;4.40;;;9.80;58.60;;;;;;4900465;29;20110;-50
2022/06/02 03:42:32;;;;;;;5.75;4.07;;;9.90;58.30;;;;;;4924785;29;20063;-51
2022/06/02 03:45:24;;;;;;;5.78;4.45;;;9.80;58.40;;;;;;4917269;29;20044;-51
2022/06/02 03:48:30;;;;;;;4.63;3.90;;;9.80;58.70;;;;;;4924017;29;20035;-48
2022/06/02 03:51:14;;;;;;;4.63;3.97;;;9.80;58.80;;;;;;4928005;29;20039;-50
2022/06/02 03:54:14;;;;;;;6.30;4.25;;;9.80;58.40;;;;;;4935924;29;20460;-50
2022/06/02 03:56:54;;;;;;;5.43;4.60;;;9.80;59.10;;;;;;4924061;29;20095;-51
2022/06/02 03:59:47;;;;;;;5.13;4.40;;;9.80;58.80;;;;;;4925871;29;20119;-51
2022/06/02 04:02:31;;;;;;;4.97;4.30;;;9.80;58.50;;;;;;4936002;29;20043;-50
2022/06/02 04:05:32;;;;;;;5.45;4.40;;;9.80;58.80;;;;;;4924238;29;20044;-49
2022/06/02 04:08:29;;;;;;;5.18;4.20;;;9.80;59.00;;;;;;4914729;29;20052;-47
2022/06/02 04:11:15;;;;;;;4.70;4.18;;;9.80;59.40;;;;;;4920687;29;20516;-48
2022/06/02 04:14:03;;;;;;;5.38;4.85;;;9.80;59.40;;;;;;4917390;29;20528;-51
2022/06/02 04:16:45;;;;;;;5.20;4.40;;;9.80;59.40;;;;;;4922084;29;20107;-50
2022/06/02 04:22:38;;;;;;;5.50;5.00;;;9.90;59.00;;;;;;4935007;29;20070;-51
2022/06/02 04:25:17;;;;;;;6.32;5.20;;;9.90;60.10;;;;;;4923946;29;20036;-51
2022/06/02 04:27:55;;;;;;;11.55;5.50;;;9.90;59.20;;;;;;4915943;29;20083;-51
2022/06/02 04:30:47;;;;;;;6.35;5.25;;;9.90;60.00;;;;;;4916053;29;20076;-51
2022/06/02 04:33:36;;;;;;;5.65;4.88;;;10.00;60.50;;;;;;4924282;29;20054;-51
2022/06/02 04:36:08;;;;;;;6.97;5.55;;;10.00;60.80;;;;;;4925934;29;20099;-50
2022/06/02 04:38:53;;;;;;;6.03;5.35;;;10.10;60.40;;;;;;4933683;29;20485;-48
2022/06/02 04:41:58;;;;;;;7.13;5.70;;;10.10;60.90;;;;;;4925287;29;20044;-51
2022/06/02 04:44:51;;;;;;;7.18;5.75;;;10.20;61.20;;;;;;4923491;29;20095;-51
2022/06/02 04:47:39;;;;;;;6.95;5.90;;;10.20;61.60;;;;;;4923564;29;20604;-51
2022/06/02 04:50:37;;;;;;;7.50;6.50;;;10.30;61.50;;;;;;4914051;29;20043;-52
2022/06/02 04:53:23;;;;;;;8.43;6.35;;;10.30;61.80;;;;;;4920261;29;20068;-51
2022/06/02 04:55:59;;;;;;;7.55;6.70;;;10.40;61.90;;;;;;4919232;29;20083;-52
2022/06/02 04:58:43;;;;;;;7.30;6.55;;;10.40;60.80;;;;;;4915354;29;20052;-52
2022/06/02 05:01:19;;;;;;;9.27;7.45;;;10.50;61.80;;;;;;4916929;29;20048;-49
2022/06/02 05:04:09;;;;;;;9.43;7.90;;;10.60;62.20;;;;;;4923198;29;20545;-50
2022/06/02 05:06:47;;;;;;;8.55;7.32;;;10.60;62.10;;;;;;4870239;29;20048;-52
2022/06/02 05:09:32;;;;;;;10.45;8.38;;;10.70;62.10;;;;;;4911651;29;20044;-51
2022/06/02 05:12:28;;;;;;;9.77;8.13;;;10.80;62.10;;;;;;4898021;29;20044;-51
2022/06/02 05:15:31;;;;;;;11.45;9.73;;;10.80;63.20;;;;;;4906790;29;20095;-52
2022/06/02 05:18:25;;;;;;;13.30;10.88;;;11.00;64.90;;;;;;4903755;29;20578;-52
2022/06/02 05:21:28;;;;;;;15.07;12.30;;;11.10;65.60;;;;;;4905632;29;20513;-50
2022/06/02 05:24:10;;;;;;;14.48;12.30;;;11.10;64.70;;;;;;4871895;29;20048;-52
2022/06/02 05:27:15;;;;;;;14.57;11.75;;;11.30;66.20;;;;;;4891894;29;20524;-51
2022/06/02 05:30:03;;;;;;;14.15;11.88;;;11.40;67.30;;;;;;4911678;29;20039;-53
2022/06/02 05:32:36;;;;;;;15.82;12.48;;;11.50;66.90;;;;;;4902130;29;20641;-53
2022/06/02 05:35:04;;;;;;;17.23;13.80;;;11.70;65.60;;;;;;4911035;29;20051;-52
2022/06/02 05:38:02;;;;;;;16.77;13.90;;;11.70;66.00;;;;;;4904129;29;20516;-52
2022/06/02 05:40:38;;;;;;;15.93;13.75;;;11.80;68.30;;;;;;4882494;29;20071;-50
2022/06/02 05:43:35;;;;;;;19.38;16.10;;;12.00;67.10;;;;;;4906533;29;20044;-53
2022/06/02 05:46:14;;;;;;;17.58;15.40;;;12.10;67.20;;;;;;4884090;29;20048;-54
2022/06/02 05:49:16;;;;;;;19.55;15.45;;;12.20;66.50;;;;;;4910080;29;20531;-52
2022/06/02 05:52:05;;;;;;;17.58;15.30;;;12.30;67.20;;;;;;4885467;29;20103;-51
2022/06/02 05:54:42;;;;;;;18.30;15.60;;;12.40;66.50;;;;;;4912177;29;20103;-48
2022/06/02 05:57:34;;;;;;;20.77;16.33;;;12.50;67.10;;;;;;4905517;29;20040;-50
2022/06/02 06:00:31;;;;;;;19.98;15.80;;;12.60;67.80;;;;;;4913429;29;20096;-54
2022/06/02 06:03:16;;;;;;;22.52;16.30;;;12.70;68.30;;;;;;4903344;29;20063;-53
2022/06/02 06:06:23;;;;;;;16.85;14.27;;;12.80;66.30;;;;;;4908479;29;20119;-48
2022/06/02 06:09:09;;;;;;;17.30;13.90;;;12.90;68.30;;;;;;4918490;29;20090;-51
2022/06/02 06:11:45;;;;;;;17.00;14.32;;;12.90;67.20;;;;;;4905964;29;20420;-49
2022/06/02 06:14:33;;;;;;;21.55;16.20;;;13.00;66.20;;;;;;4918098;29;20095;-50
2022/06/02 06:17:24;;;;;;;18.25;15.13;;;13.10;66.40;;;;;;4897118;29;20567;-51
2022/06/02 06:20:12;;;;;;;17.67;14.63;;;13.20;68.10;;;;;;4913832;29;20032;-51
2022/06/02 06:23:00;;;;;;;20.23;15.48;;;13.30;68.10;;;;;;4900720;29;20055;-51
2022/06/02 06:25:59;;;;;;;20.15;14.45;;;13.30;67.70;;;;;;4910935;29;20052;-50
2022/06/02 06:28:31;;;;;;;18.30;14.32;;;13.40;67.80;;;;;;4910315;29;20083;-52
2022/06/02 06:31:03;;;;;;;19.33;14.95;;;13.50;66.40;;;;;;4902801;29;20083;-50
2022/06/02 06:33:45;;;;;;;19.00;14.82;;;13.50;66.80;;;;;;4925200;29;20056;-52
2022/06/02 06:36:43;;;;;;;19.08;15.70;;;13.60;67.20;;;;;;4902167;29;20072;-53
2022/06/02 06:39:17;;;;;;;18.05;15.43;;;13.70;67.50;;;;;;4922343;29;20051;-48
2022/06/02 06:42:02;;;;;;;18.15;15.27;;;13.70;66.90;;;;;;4899259;29;20071;-54
2022/06/02 06:44:56;;;;;;;15.45;13.70;;;13.80;67.10;;;;;;4906157;29;20464;-51
2022/06/02 06:47:30;;;;;;;16.08;12.90;;;13.90;66.90;;;;;;4900506;29;20076;-54
2022/06/02 06:50:02;;;;;;;15.27;12.95;;;13.90;66.50;;;;;;4925767;29;20047;-54
2022/06/02 06:52:40;;;;;;;17.25;13.38;;;14.00;66.90;;;;;;4899229;29;20132;-54
2022/06/02 06:55:41;;;;;;;15.65;12.70;;;14.00;67.30;;;;;;4917308;29;20099;-54
2022/06/02 06:58:26;;;;;;;15.43;12.00;;;14.10;67.00;;;;;;4912299;29;20040;-51
2022/06/02 07:01:04;;;;;;;13.85;11.05;;;14.20;66.00;;;;;;4919172;29;20044;-48
2022/06/02 07:04:08;;;;;;;12.55;11.13;;;14.30;65.90;;;;;;4919053;29;20116;-53
2022/06/02 07:06:54;;;;;;;11.43;9.60;;;14.30;66.40;;;;;;4906914;29;20044;-54
2022/06/02 07:09:48;;;;;;;9.23;8.27;;;14.40;65.90;;;;;;4907923;29;20063;-54
2022/06/02 07:15:30;;;;;;;11.43;7.65;;;14.50;65.10;;;;;;4913598;29;20040;-53
2022/06/02 07:18:03;;;;;;;10.30;8.75;;;14.60;65.40;;;;;;4909409;29;20043;-52
2022/06/02 07:20:59;;;;;;;11.57;8.77;;;14.70;65.30;;;;;;4897121;29;20134;-54
2022/06/02 07:23:42;;;;;;;8.60;7.43;;;14.80;65.20;;;;;;4923144;29;20111;-54
2022/06/02 07:26:54;;;;;;;10.23;8.05;;;14.90;64.70;;;;;;4910106;29;20088;-54
2022/06/02 07:29:58;;;;;;;10.63;8.30;;;15.00;64.90;;;;;;4864934;29;20580;-54
2022/06/02 07:32:49;;;;;;;7.28;6.50;;;15.10;64.60;;;;;;4906607;29;20060;-54
2022/06/02 07:35:42;;;;;;;9.10;7.78;;;15.30;63.30;;;;;;4908727;29;20073;-53
2022/06/02 07:38:24;;;;;;;7.97;6.63;;;15.40;63.30;;;;;;4906913;29;20048;-53
2022/06/02 07:41:00;;;;;;;10.02;7.70;;;15.50;62.90;;;;;;4905367;29;20143;-51
2022/06/02 07:43:52;;;;;;;9.10;7.68;;;15.60;62.90;;;;;;4920137;29;20048;-53
2022/06/02 07:46:49;;;;;;;8.48;7.57;;;15.80;61.60;;;;;;4907645;29;20464;-50
2022/06/02 07:49:42;;;;;;;8.10;6.97;;;15.90;61.50;;;;;;4912151;29;20048;-53
2022/06/02 07:52:29;;;;;;;8.00;7.20;;;16.00;60.80;;;;;;4904059;29;20040;-54
2022/06/02 07:55:01;;;;;;;7.40;6.70;;;16.00;61.30;;;;;;4914126;29;20048;-53
2022/06/02 07:58:10;;;;;;;7.40;6.70;;;16.10;60.60;;;;;;4901877;29;20079;-54
2022/06/02 08:00:46;;;;;;;8.02;6.25;;;16.10;60.40;;;;;;4917211;29;20075;-52
2022/06/02 08:03:25;;;;;;;5.97;5.35;;;16.20;60.50;;;;;;4910823;29;20040;-54
2022/06/02 08:05:56;;;;;;;4.65;4.20;;;16.20;59.60;;;;;;4928079;23;20059;-58
2022/06/02 08:08:29;;;;;;;5.05;4.57;;;16.20;58.60;;;;;;4936359;29;20747;-49
2022/06/02 08:11:32;;;;;;;5.75;4.72;;;16.20;58.70;;;;;;4940574;28;20039;-57
2022/06/02 08:14:17;;;;;;;5.75;5.00;;;16.20;59.00;;;;;;4948334;28;20043;-55
2022/06/02 08:17:00;;;;;;;5.15;4.65;;;16.20;58.60;;;;;;4939926;28;20075;-50
2022/06/02 08:19:44;;;;;;;;;;;16.20;58.70;;;;;;4955488;28;20050;-48
2022/06/02 08:22:23;;;;;;;5.00;3.80;;;16.20;58.80;;;;;;4940004;28;19977;-48
2022/06/02 08:25:16;;;;;;;5.10;4.47;;;16.20;57.90;;;;;;4935099;29;20031;-50
2022/06/02 08:27:48;;;;;;;3.63;3.33;;;16.20;58.50;;;;;;4935025;28;20142;-49
2022/06/02 08:30:24;;;;;;;3.40;3.10;;;16.20;58.10;;;;;;4951751;28;20073;-50
2022/06/02 08:33:13;;;;;;;4.07;3.00;;;16.20;57.30;;;;;;4941120;28;20598;-52
2022/06/02 08:35:54;;;;;;;3.40;2.88;;;16.20;57.80;;;;;;4940146;28;20051;-56
2022/06/02 08:38:38;;;;;;;4.95;2.97;;;16.20;57.20;;;;;;4951392;28;20058;-53
2022/06/02 08:41:42;;;;;;;4.55;3.30;;;16.20;56.30;;;;;;4944364;28;20046;-53
2022/06/02 08:44:30;;;;;;;3.85;3.15;;;16.20;56.70;;;;;;4938336;28;20036;-53
2022/06/02 08:47:31;;;;;;;4.07;3.67;;;16.30;57.40;;;;;;4938754;28;20043;-49
2022/06/02 08:50:48;;;;;;;4.35;3.95;;;16.30;57.60;;;;;;4956371;28;20090;-51
2022/06/02 08:53:52;;;;;;;3.63;3.30;;;16.40;57.50;;;;;;4910112;28;20723;-51
2022/06/02 08:56:56;;;;;;;3.65;3.20;;;16.40;57.40;;;;;;4927775;28;20176;-47
2022/06/02 08:59:54;;;;;;;4.22;3.38;;;16.50;57.20;;;;;;4944314;29;20118;-50
2022/06/02 09:02:58;;;;;;;4.13;3.72;;;16.50;57.10;;;;;;4936046;28;20051;-52
2022/06/02 09:05:49;;;;;;;4.05;3.65;;;16.60;57.20;;;;;;4943368;28;20047;-53
2022/06/02 09:08:35;;;;;;;3.55;3.25;;;16.70;56.90;;;;;;4944494;28;20087;-51
2022/06/02 09:11:23;;;;;;;3.65;3.30;;;16.70;56.70;;;;;;4943436;28;20106;-51
2022/06/02 09:13:53;;;;;;;2.97;2.67;;;16.80;55.20;;;;;;4944626;28;20047;-49
2022/06/02 09:16:24;;;;;;;3.78;2.88;;;16.80;54.90;;;;;;4939152;28;20122;-51
2022/06/02 09:19:19;;;;;;;2.90;2.60;;;16.90;54.80;;;;;;4958002;28;20039;-48
2022/06/02 09:22:05;;;;;;;2.83;2.63;;;17.00;54.60;;;;;;4927508;28;20449;-53
2022/06/02 09:24:54;;;;;;;3.38;2.47;;;17.00;54.50;;;;;;4945661;28;20042;-47
2022/06/02 09:27:27;;;;;;;4.13;2.75;;;17.10;53.30;;;;;;4936092;28;20051;-51
2022/06/02 09:30:25;;;;;;;2.63;2.42;;;17.20;54.00;;;;;;4946823;28;20039;-52
2022/06/02 09:33:34;;;;;;;3.90;2.40;;;17.30;52.30;;;;;;4931234;28;20094;-52
2022/06/02 09:36:26;;;;;;;4.47;3.13;;;17.30;52.80;;;;;;4949326;28;20399;-55
2022/06/02 09:39:10;;;;;;;3.50;3.20;;;17.40;52.70;;;;;;4940768;28;20055;-51
2022/06/02 09:42:14;;;;;;;3.22;3.00;;;17.40;52.40;;;;;;4933960;28;20098;-52
2022/06/02 09:45:16;;;;;;;3.15;2.85;;;17.50;52.30;;;;;;4945591;28;20074;-48
2022/06/02 09:47:47;;;;;;;4.47;3.20;;;17.50;52.50;;;;;;4934953;28;20047;-49
2022/06/02 09:50:37;;;;;;;4.35;3.53;;;17.60;53.50;;;;;;4932396;28;20098;-48
2022/06/02 09:53:17;;;;;;;3.75;3.45;;;17.70;53.10;;;;;;4931873;28;20093;-52
2022/06/02 09:56:07;;;;;;;3.95;2.08;;;17.70;54.30;;;;;;4948097;28;20783;-57
2022/06/02 09:58:36;;;;;;;3.60;3.30;;;17.80;54.20;;;;;;4934648;29;20044;-52
2022/06/02 10:01:21;;;;;;;3.83;3.38;;;17.90;54.30;;;;;;4933291;28;20071;-50
2022/06/02 10:04:24;;;;;;;4.00;3.38;;;18.00;54.60;;;;;;4945730;28;20061;-50
2022/06/02 10:06:54;;;;;;;;;;;18.20;52.90;;;;;;4928650;28;20060;-47
2022/06/02 10:09:34;;;;;;;4.55;4.10;;;18.30;53.70;;;;;;4947104;29;19922;-51
2022/06/02 10:15:19;;;;;;;5.72;5.13;;;18.50;53.10;;;;;;4939415;28;20482;-52
2022/06/02 10:18:18;;;;;;;5.07;4.68;;;18.50;52.40;;;;;;4925687;28;20073;-49
2022/06/02 10:20:56;;;;;;;5.55;4.82;;;18.60;52.10;;;;;;4933947;28;20511;-57
2022/06/02 10:24:15;;;;;;;4.75;4.35;;;18.60;52.10;;;;;;4950576;28;20131;-52
2022/06/02 10:26:57;;;;;;;4.68;4.25;;;18.70;52.10;;;;;;4910975;28;20055;-52
2022/06/02 10:30:22;;;;;;;3.38;2.95;;;18.80;53.10;;;;;;4946875;28;20114;-50
2022/06/02 10:33:36;;;;;;;3.88;3.58;;;18.90;51.90;;;;;;4909138;29;20122;-53
2022/06/02 10:36:16;;;;;;;4.40;3.85;;;19.10;51.70;;;;;;4937329;28;20825;-50
2022/06/02 10:39:01;;;;;;;4.68;4.28;;;19.30;52.00;;;;;;4940142;28;20466;-53
2022/06/02 10:41:57;;;;;;;4.93;4.43;;;19.50;52.00;;;;;;4934197;28;20788;-51
2022/06/02 10:44:49;;;;;;;4.55;4.15;;;19.70;50.80;;;;;;4954844;28;20054;-49
2022/06/02 10:47:38;;;;;;;5.07;3.65;;;19.80;49.50;;;;;;4936034;28;20053;-50
2022/06/02 10:50:10;;;;;;;4.95;4.03;;;19.90;50.40;;;;;;4936869;28;20043;-51
2022/06/02 10:53:12;;;;;;;3.58;3.28;;;20.00;49.30;;;;;;4931714;28;20059;-49
2022/06/02 10:55:44;;;;;;;4.13;3.53;;;20.10;49.40;;;;;;4930044;29;20063;-53
2022/06/02 10:58:50;;;;;;;4.65;4.00;;;20.20;49.20;;;;;;4931866;28;20058;-53
2022/06/02 11:01:56;;;;;;;4.47;4.03;;;20.30;48.70;;;;;;4926402;28;21100;-52
2022/06/02 11:04:52;;;;;;;3.72;3.42;;;20.40;48.00;;;;;;4945272;28;20062;-53
2022/06/02 11:07:25;;;;;;;3.38;3.08;;;20.40;47.60;;;;;;4929967;28;20055;-49
2022/06/02 11:10:16;;;;;;;2.95;2.75;;;20.40;47.80;;;;;;4946394;29;20070;-54
2022/06/02 11:13:08;;;;;;;2.63;2.42;;;20.40;47.60;;;;;;4931127;28;20047;-50
2022/06/02 11:16:23;;;;;;;3.40;3.10;;;20.40;47.30;;;;;;4953447;28;20058;-54
2022/06/02 11:19:17;;;;;;;3.55;3.25;;;20.40;47.80;;;;;;4954810;28;20129;-51
2022/06/02 11:21:44;;;;;;;3.75;3.03;;;20.50;47.80;;;;;;4930180;28;20153;-48
2022/06/02 11:24:31;;;;;;;2.88;2.65;;;20.50;47.70;;;;;;4937091;29;20077;-50
2022/06/02 11:27:16;;;;;;;2.05;1.95;;;20.60;46.60;;;;;;4930952;28;20043;-51
2022/06/02 11:30:02;;;;;;;3.78;3.03;;;20.70;46.20;;;;;;4962105;28;20097;-47
2022/06/02 11:32:54;;;;;;;3.10;2.85;;;20.70;46.30;;;;;;4934540;28;20107;-52
2022/06/02 11:35:40;;;;;;;2.67;2.20;;;20.80;46.70;;;;;;4942631;28;20047;-52
2022/06/02 11:38:30;;;;;;;3.30;2.72;;;20.80;46.00;;;;;;4941986;28;20043;-51
2022/06/02 11:41:23;;;;;;;2.58;2.00;;;20.90;45.60;;;;;;4948031;28;20056;-56
2022/06/02 11:43:50;;;;;;;;;;;20.90;45.10;;;;;;4938854;28;20537;-50
2022/06/02 11:46:22;;;;;;;2.08;1.88;;;21.00;46.90;;;;;;4946402;28;20884;-47
2022/06/02 11:49:02;;;;;;;;;;;21.00;45.10;;;;;;4954701;28;20095;-48
2022/06/02 11:52:07;;;;;;;2.42;1.83;;;21.10;46.40;;;;;;4929793;28;20421;-50
2022/06/02 11:55:15;;;;;;;2.80;2.00;;;21.10;44.50;;;;;;4944919;28;20406;-53
2022/06/02 11:58:08;;;;;;;3.75;3.42;;;21.10;45.10;;;;;;4937237;29;20046;-50
2022/06/02 12:00:57;;;;;;;2.38;2.05;;;21.20;44.00;;;;;;4956102;28;20098;-49
2022/06/02 12:03:44;;;;;;;2.67;1.77;;;21.20;44.20;;;;;;4962478;28;20088;-48
2022/06/02 12:06:55;;;;;;;3.45;3.15;;;21.30;45.10;;;;;;4953742;28;20134;-50
2022/06/02 12:09:43;;;;;;;3.08;2.83;;;21.30;44.40;;;;;;4918968;29;20044;-49
2022/06/02 12:12:10;;;;;;;3.70;2.38;;;21.40;44.20;;;;;;4916969;29;20100;-52
2022/06/02 12:15:12;;;;;;;2.33;2.03;;;21.50;44.70;;;;;;4936487;28;20063;-48
2022/06/02 12:18:01;;;;;;;2.20;2.00;;;21.70;44.30;;;;;;4944348;28;20066;-53
2022/06/02 12:20:59;;;;;;;2.78;1.90;;;21.90;43.90;;;;;;4950649;28;20051;-51
2022/06/02 12:23:43;;;;;;;2.70;1.60;;;22.20;43.10;;;;;;4954760;28;20047;-53
2022/06/02 12:26:40;;;;;;;1.90;1.75;;;22.50;43.50;;;;;;4963381;28;20450;-52
2022/06/02 12:29:21;;;;;;;2.17;2.00;;;22.70;42.40;;;;;;4948704;29;20050;-49
2022/06/02 12:31:51;;;;;;;2.15;2.03;;;22.90;41.80;;;;;;4945390;28;20043;-53
2022/06/02 12:34:37;;;;;;;2.53;2.33;;;23.00;41.00;;;;;;4961564;28;20051;-49
2022/06/02 12:37:25;;;;;;;2.08;1.90;;;23.10;40.60;;;;;;4956815;28;20043;-51
2022/06/02 12:40:29;;;;;;;2.70;2.42;;;23.30;40.00;;;;;;4949020;28;20764;-49
2022/06/02 12:43:29;;;;;;;3.90;3.30;;;23.30;40.40;;;;;;4947950;28;20443;-52
2022/06/02 12:46:15;;;;;;;4.13;3.33;;;23.40;41.10;;;;;;4945345;28;20714;-56
2022/06/02 12:49:15;;;;;;;4.20;3.90;;;23.50;40.90;;;;;;4935163;28;20495;-52
2022/06/02 12:51:48;;;;;;;3.67;3.38;;;23.50;40.70;;;;;;4933155;28;20091;-53
2022/06/02 12:55:20;;;;;;;3.90;2.40;;;23.50;41.00;;;;;;4945708;28;20094;-50
2022/06/02 12:58:15;;;;;;;3.67;2.30;;;23.60;41.00;;;;;;4889156;29;20063;-53
2022/06/02 13:01:00;;;;;;;2.17;1.98;;;23.70;39.60;;;;;;4957856;28;20050;-52
2022/06/02 13:03:36;;;;;;;3.08;2.05;;;23.70;39.40;;;;;;4945688;28;20110;-51
2022/06/02 13:06:21;;;;;;;2.92;2.72;;;23.90;39.80;;;;;;4936866;28;20040;-54
2022/06/02 13:08:54;;;;;;;3.83;2.30;;;24.00;39.00;;;;;;4947913;28;20723;-51
2022/06/02 13:11:33;;;;;;;3.45;3.15;;;24.10;38.60;;;;;;4934771;28;20154;-56
2022/06/02 13:14:06;;;;;;;2.45;2.25;;;24.30;38.50;;;;;;4952083;28;20043;-51
2022/06/02 13:17:09;;;;;;;3.28;2.97;;;24.40;38.30;;;;;;4932898;28;20046;-50
2022/06/02 13:19:58;;;;;;;2.60;2.33;;;24.60;38.10;;;;;;4941796;28;20077;-49
2022/06/02 13:22:35;;;;;;;2.35;2.13;;;24.80;37.90;;;;;;4949698;28;20051;-55
2022/06/02 13:25:43;;;;;;;2.55;2.00;;;25.00;39.00;;;;;;4947141;28;20544;-50
2022/06/02 13:28:23;;;;;;;2.30;2.10;;;25.30;38.90;;;;;;4949382;28;20044;-50
2022/06/02 13:31:12;;;;;;;2.30;2.05;;;25.80;39.90;;;;;;4952088;28;20549;-54
2022/06/02 13:34:01;;;;;;;2.38;2.20;;;26.60;40.20;;;;;;4955003;28;20047;-54
2022/06/02 13:36:37;;;;;;;2.75;2.55;;;27.70;38.60;;;;;;4946239;29;20067;-51
2022/06/02 13:39:35;;;;;;;3.60;2.63;;;28.70;37.90;;;;;;4949292;28;20039;-52
2022/06/02 13:42:33;;;;;;;2.30;2.15;;;29.90;37.20;;;;;;4948859;28;20110;-53
2022/06/02 13:45:19;;;;;;;3.08;1.85;;;31.20;36.70;;;;;;4950614;28;20112;-54
2022/06/02 13:48:13;;;;;;;3.30;2.80;;;32.50;35.80;;;;;;4949126;28;20742;-49
2022/06/02 13:51:05;;;;;;;2.30;2.13;;;33.90;34.30;;;;;;4956179;28;20101;-55
2022/06/02 13:59:48;;;;;;;1.60;1.20;;;37.40;30.50;;;;;;4946543;29;20125;-52
2022/06/02 14:02:35;;;;;;;1.65;1.40;;;38.40;28.50;;;;;;4947093;28;20664;-51
2022/06/02 14:05:27;;;;;;;2.45;1.25;;;39.20;28.10;;;;;;4943011;28;20035;-54
2022/06/02 14:08:08;;;;;;;1.05;1.02;;;40.10;28.10;;;;;;4944993;28;20408;-49
2022/06/02 14:11:03;;;;;;;2.03;1.23;;;40.90;26.80;;;;;;4943593;28;20332;-51
2022/06/02 14:14:07;;;;;;;1.45;1.35;;;41.40;26.40;;;;;;4940095;29;20052;-54
2022/06/02 14:16:37;;;;;;;1.40;1.30;;;42.10;26.60;;;;;;4947505;28;20054;-54
2022/06/02 14:19:12;;;;;;;1.50;1.40;;;42.60;24.60;;;;;;4980802;23;20442;-55
2022/06/02 14:22:04;;;;;;;2.55;1.70;;;43.10;25.20;;;;;;4963362;28;20410;-54
2022/06/02 14:25:03;;;;;;;1.55;1.40;;;43.50;24.10;;;;;;4964342;28;20046;-55
2022/06/02 14:27:51;;;;;;;0.70;0.70;;;44.00;24.50;;;;;;4964750;28;20051;-54
2022/06/02 14:30:31;;;;;;;1.00;1.00;;;44.40;24.00;;;;;;4971385;28;20030;-56
2022/06/02 14:33:23;;;;;;;2.60;1.38;;;44.80;23.40;;;;;;4961576;28;20071;-56
2022/06/02 14:36:02;;;;;;;1.52;1.42;;;45.20;23.70;;;;;;4952540;28;20106;-55
2022/06/02 14:39:10;;;;;;;1.08;0.98;;;45.60;23.40;;;;;;4949304;28;20047;-56
2022/06/02 14:42:03;;;;;;;1.30;1.20;;;46.00;23.70;;;;;;4946953;29;20047;-56
2022/06/02 14:44:56;;;;;;;1.50;0.98;;;46.20;23.00;;;;;;4949778;28;20573;-56
2022/06/02 14:47:35;;;;;;;0.75;0.70;;;46.50;22.30;;;;;;4948273;28;20118;-54
2022/06/02 14:50:31;;;;;;;0.88;0.88;;;46.70;22.30;;;;;;4946361;29;20122;-55